createdAt,value
2018-08-03T00:00:08.802Z,25.72
2018-08-03T00:00:18.807Z,25.68
2018-08-03T00:00:28.821Z,25.78
2018-08-03T00:00:38.822Z,25.78
2018-08-03T00:00:48.841Z,25.72
2018-08-03T00:00:58.861Z,25.71
2018-08-03T00:01:08.851Z,25.7
2018-08-03T00:01:18.903Z,25.7
2018-08-03T00:01:28.912Z,25.71
2018-08-03T00:01:38.903Z,25.79
2018-08-03T00:01:48.929Z,25.78
2018-08-03T00:01:58.941Z,25.78
2018-08-03T00:02:08.961Z,25.67
2018-08-03T00:02:18.961Z,25.72
2018-08-03T00:02:28.980Z,25.72
2018-08-03T00:02:39.009Z,25.68
2018-08-03T00:02:48.990Z,25.7
2018-08-03T00:02:59.024Z,25.82
2018-08-03T00:03:09.049Z,25.78
2018-08-03T00:03:19.041Z,25.67
2018-08-03T00:03:29.222Z,25.75
2018-08-03T00:03:39.090Z,25.74
2018-08-03T00:03:49.089Z,25.68
2018-08-03T00:03:59.115Z,25.78
2018-08-03T00:04:09.131Z,25.72
2018-08-03T00:04:19.121Z,25.74
2018-08-03T00:04:29.141Z,25.68
2018-08-03T00:04:39.171Z,25.78
2018-08-03T00:04:49.164Z,25.74
2018-08-03T00:04:59.181Z,25.75
2018-08-03T00:05:09.203Z,25.78
2018-08-03T00:05:19.228Z,25.77
2018-08-03T00:05:29.226Z,25.77
2018-08-03T00:05:39.242Z,25.75
2018-08-03T00:05:49.264Z,25.75
2018-08-03T00:05:59.262Z,25.78
2018-08-03T00:06:09.300Z,25.71
2018-08-03T00:06:19.312Z,25.68
2018-08-03T00:06:29.310Z,25.75
2018-08-03T00:06:39.324Z,25.83
2018-08-03T00:06:49.331Z,25.79
2018-08-03T00:06:59.351Z,25.79
2018-08-03T00:07:09.351Z,25.79
2018-08-03T00:07:19.383Z,25.78
2018-08-03T00:07:29.461Z,25.67
2018-08-03T00:07:39.408Z,25.75
2018-08-03T00:07:49.429Z,25.74
2018-08-03T00:07:59.442Z,25.77
2018-08-03T00:08:09.440Z,25.68
2018-08-03T00:08:19.461Z,25.75
2018-08-03T00:08:29.500Z,25.74
2018-08-03T00:08:39.490Z,25.68
2018-08-03T00:08:49.491Z,25.74
2018-08-03T00:08:59.515Z,25.78
2018-08-03T00:09:09.512Z,25.67
2018-08-03T00:09:19.549Z,25.78
2018-08-03T00:09:29.561Z,25.71
2018-08-03T00:09:39.572Z,25.71
2018-08-03T00:09:49.584Z,25.71
2018-08-03T00:09:59.596Z,25.77
2018-08-03T00:10:09.628Z,25.7
2018-08-03T00:10:19.621Z,25.71
2018-08-03T00:10:29.655Z,25.78
2018-08-03T00:10:39.670Z,25.74
2018-08-03T00:10:49.662Z,25.67
2018-08-03T00:10:59.671Z,25.74
2018-08-03T00:11:09.716Z,25.74
2018-08-03T00:11:19.723Z,25.72
2018-08-03T00:11:29.742Z,25.67
2018-08-03T00:11:39.773Z,25.72
2018-08-03T00:11:49.771Z,25.77
2018-08-03T00:11:59.759Z,25.74
2018-08-03T00:12:09.789Z,25.74
2018-08-03T00:12:19.801Z,25.75
2018-08-03T00:12:29.852Z,25.72
2018-08-03T00:12:39.816Z,25.7
2018-08-03T00:12:49.839Z,25.71
2018-08-03T00:12:59.834Z,25.72
2018-08-03T00:13:09.870Z,25.71
2018-08-03T00:13:19.883Z,25.71
2018-08-03T00:13:29.889Z,25.7
2018-08-03T00:13:39.895Z,25.68
2018-08-03T00:13:49.912Z,25.72
2018-08-03T00:13:59.949Z,25.67
2018-08-03T00:14:09.950Z,25.72
2018-08-03T00:14:19.961Z,25.72
2018-08-03T00:14:29.984Z,25.74
2018-08-03T00:14:39.984Z,25.72
2018-08-03T00:14:49.993Z,25.75
2018-08-03T00:15:00.027Z,25.71
2018-08-03T00:15:10.030Z,25.71
2018-08-03T00:15:20.042Z,25.7
2018-08-03T00:15:30.067Z,25.74
2018-08-03T00:15:40.057Z,25.72
2018-08-03T00:15:50.084Z,25.71
2018-08-03T00:16:00.093Z,25.75
2018-08-03T00:16:10.121Z,25.67
2018-08-03T00:16:20.125Z,25.7
2018-08-03T00:16:30.133Z,25.67
2018-08-03T00:16:40.171Z,25.74
2018-08-03T00:16:50.175Z,25.72
2018-08-03T00:17:00.181Z,25.67
2018-08-03T00:17:10.192Z,25.71
2018-08-03T00:17:20.203Z,25.7
2018-08-03T00:17:30.222Z,25.7
2018-08-03T00:17:40.243Z,25.72
2018-08-03T00:17:50.233Z,25.7
2018-08-03T00:18:00.271Z,25.74
2018-08-03T00:18:10.283Z,25.72
2018-08-03T00:18:20.308Z,25.75
2018-08-03T00:18:30.293Z,25.72
2018-08-03T00:18:40.330Z,25.71
2018-08-03T00:18:50.346Z,25.74
2018-08-03T00:19:00.343Z,25.71
2018-08-03T00:19:10.353Z,25.72
2018-08-03T00:19:20.381Z,25.72
2018-08-03T00:19:30.384Z,25.74
2018-08-03T00:19:40.400Z,25.7
2018-08-03T00:19:50.425Z,25.7
2018-08-03T00:20:00.423Z,25.72
2018-08-03T00:20:10.433Z,25.68
2018-08-03T00:20:20.456Z,25.74
2018-08-03T00:20:30.452Z,25.74
2018-08-03T00:20:40.482Z,25.72
2018-08-03T00:20:50.511Z,25.67
2018-08-03T00:21:00.530Z,25.71
2018-08-03T00:21:10.512Z,25.7
2018-08-03T00:21:20.540Z,25.67
2018-08-03T00:21:30.565Z,25.71
2018-08-03T00:21:40.571Z,25.71
2018-08-03T00:21:50.573Z,25.7
2018-08-03T00:22:00.608Z,25.64
2018-08-03T00:22:10.592Z,25.71
2018-08-03T00:22:20.619Z,25.67
2018-08-03T00:22:30.683Z,25.72
2018-08-03T00:22:40.643Z,25.7
2018-08-03T00:22:50.674Z,25.72
2018-08-03T00:23:00.733Z,25.65
2018-08-03T00:23:10.693Z,25.72
2018-08-03T00:23:20.705Z,25.65
2018-08-03T00:23:30.722Z,25.71
2018-08-03T00:23:40.751Z,25.7
2018-08-03T00:23:50.742Z,25.67
2018-08-03T00:24:00.754Z,25.62
2018-08-03T00:24:10.779Z,25.7
2018-08-03T00:24:20.782Z,25.65
2018-08-03T00:24:30.793Z,25.64
2018-08-03T00:24:40.821Z,25.67
2018-08-03T00:24:50.822Z,25.65
2018-08-03T00:25:00.844Z,25.75
2018-08-03T00:25:10.854Z,25.74
2018-08-03T00:25:20.874Z,25.7
2018-08-03T00:25:30.873Z,25.71
2018-08-03T00:25:40.912Z,25.7
2018-08-03T00:25:50.955Z,25.7
2018-08-03T00:26:00.913Z,25.67
2018-08-03T00:26:10.934Z,25.64
2018-08-03T00:26:20.962Z,25.67
2018-08-03T00:26:30.954Z,25.72
2018-08-03T00:26:40.972Z,25.67
2018-08-03T00:26:50.994Z,25.7
2018-08-03T00:27:00.994Z,25.65
2018-08-03T00:27:11.014Z,25.7
2018-08-03T00:27:21.033Z,25.7
2018-08-03T00:27:31.062Z,25.7
2018-08-03T00:27:41.054Z,25.68
2018-08-03T00:27:51.076Z,25.64
2018-08-03T00:28:01.094Z,25.71
2018-08-03T00:28:11.093Z,25.68
2018-08-03T00:28:21.117Z,25.68
2018-08-03T00:28:31.147Z,25.7
2018-08-03T00:28:41.135Z,25.71
2018-08-03T00:28:51.160Z,25.7
2018-08-03T00:29:01.184Z,25.67
2018-08-03T00:29:11.182Z,25.72
2018-08-03T00:29:21.194Z,25.62
2018-08-03T00:29:31.217Z,25.64
2018-08-03T00:29:41.243Z,25.75
2018-08-03T00:29:51.234Z,25.56
2018-08-03T00:30:01.273Z,25.67
2018-08-03T00:30:11.275Z,25.64
2018-08-03T00:30:21.274Z,25.65
2018-08-03T00:30:31.294Z,25.59
2018-08-03T00:30:41.316Z,25.67
2018-08-03T00:30:51.323Z,25.62
2018-08-03T00:31:01.344Z,25.6
2018-08-03T00:31:11.357Z,25.71
2018-08-03T00:31:21.383Z,25.67
2018-08-03T00:31:31.382Z,25.71
2018-08-03T00:31:41.405Z,25.6
2018-08-03T00:31:51.416Z,25.64
2018-08-03T00:32:01.433Z,25.57
2018-08-03T00:32:11.442Z,25.71
2018-08-03T00:32:21.466Z,25.67
2018-08-03T00:32:31.556Z,25.67
2018-08-03T00:32:41.483Z,25.67
2018-08-03T00:32:51.514Z,25.68
2018-08-03T00:33:01.503Z,25.7
2018-08-03T00:33:11.544Z,25.65
2018-08-03T00:33:21.535Z,25.64
2018-08-03T00:33:31.535Z,25.67
2018-08-03T00:33:41.564Z,25.72
2018-08-03T00:33:51.576Z,25.57
2018-08-03T00:34:01.585Z,25.71
2018-08-03T00:34:11.595Z,25.56
2018-08-03T00:34:21.624Z,25.71
2018-08-03T00:34:31.639Z,25.7
2018-08-03T00:34:41.635Z,25.64
2018-08-03T00:34:51.664Z,25.62
2018-08-03T00:35:01.714Z,25.7
2018-08-03T00:35:11.688Z,25.55
2018-08-03T00:35:21.710Z,25.7
2018-08-03T00:35:31.723Z,25.64
2018-08-03T00:35:41.715Z,25.64
2018-08-03T00:35:51.737Z,25.56
2018-08-03T00:36:01.765Z,25.64
2018-08-03T00:36:11.767Z,25.67
2018-08-03T00:36:21.786Z,25.68
2018-08-03T00:36:31.805Z,25.71
2018-08-03T00:36:41.817Z,25.68
2018-08-03T00:36:51.815Z,25.71
2018-08-03T00:37:01.845Z,25.59
2018-08-03T00:37:11.876Z,25.57
2018-08-03T00:37:21.857Z,25.68
2018-08-03T00:37:32.124Z,25.67
2018-08-03T00:37:41.898Z,25.75
2018-08-03T00:37:51.908Z,25.55
2018-08-03T00:38:01.917Z,25.67
2018-08-03T00:38:11.943Z,25.68
2018-08-03T00:38:21.935Z,25.67
2018-08-03T00:38:31.967Z,25.71
2018-08-03T00:38:41.980Z,25.64
2018-08-03T00:38:52.002Z,25.74
2018-08-03T00:39:02.005Z,25.67
2018-08-03T00:39:12.025Z,25.72
2018-08-03T00:39:22.036Z,25.55
2018-08-03T00:39:32.036Z,25.67
2018-08-03T00:39:42.057Z,25.64
2018-08-03T00:39:52.077Z,25.67
2018-08-03T00:40:02.086Z,25.64
2018-08-03T00:40:12.105Z,25.55
2018-08-03T00:40:22.126Z,25.72
2018-08-03T00:40:32.125Z,25.7
2018-08-03T00:40:42.139Z,25.7
2018-08-03T00:40:52.166Z,25.6
2018-08-03T00:41:02.185Z,25.57
2018-08-03T00:41:12.178Z,25.62
2018-08-03T00:41:22.215Z,25.59
2018-08-03T00:41:32.224Z,25.56
2018-08-03T00:41:42.219Z,25.6
2018-08-03T00:41:52.251Z,25.59
2018-08-03T00:42:02.255Z,25.68
2018-08-03T00:42:12.266Z,25.6
2018-08-03T00:42:22.297Z,25.59
2018-08-03T00:42:32.361Z,25.57
2018-08-03T00:42:42.319Z,25.67
2018-08-03T00:42:52.317Z,25.56
2018-08-03T00:43:02.338Z,25.55
2018-08-03T00:43:12.358Z,25.56
2018-08-03T00:43:22.407Z,25.56
2018-08-03T00:43:32.385Z,25.6
2018-08-03T00:43:42.405Z,25.53
2018-08-03T00:43:52.418Z,25.56
2018-08-03T00:44:02.425Z,25.57
2018-08-03T00:44:12.439Z,25.57
2018-08-03T00:44:22.458Z,25.59
2018-08-03T00:44:32.479Z,25.57
2018-08-03T00:44:42.494Z,25.57
2018-08-03T00:44:52.500Z,25.56
2018-08-03T00:45:02.526Z,25.67
2018-08-03T00:45:12.524Z,25.57
2018-08-03T00:45:22.539Z,25.57
2018-08-03T00:45:32.556Z,25.6
2018-08-03T00:45:42.556Z,25.59
2018-08-03T00:45:52.591Z,25.57
2018-08-03T00:46:02.601Z,25.53
2018-08-03T00:46:12.613Z,25.57
2018-08-03T00:46:22.616Z,25.65
2018-08-03T00:46:32.644Z,25.7
2018-08-03T00:46:42.656Z,25.62
2018-08-03T00:46:52.657Z,25.57
2018-08-03T00:47:02.686Z,25.57
2018-08-03T00:47:12.699Z,25.59
2018-08-03T00:47:22.696Z,25.57
2018-08-03T00:47:32.726Z,25.56
2018-08-03T00:47:42.737Z,25.62
2018-08-03T00:47:52.738Z,25.53
2018-08-03T00:48:02.757Z,25.55
2018-08-03T00:48:12.777Z,25.56
2018-08-03T00:48:22.779Z,25.57
2018-08-03T00:48:32.797Z,25.55
2018-08-03T00:48:42.817Z,25.62
2018-08-03T00:48:52.847Z,25.6
2018-08-03T00:49:02.834Z,25.57
2018-08-03T00:49:12.859Z,25.57
2018-08-03T00:49:22.876Z,25.59
2018-08-03T00:49:32.877Z,25.59
2018-08-03T00:49:42.912Z,25.57
2018-08-03T00:49:52.917Z,25.68
2018-08-03T00:50:02.931Z,25.59
2018-08-03T00:50:12.947Z,25.57
2018-08-03T00:50:22.956Z,25.57
2018-08-03T00:50:32.947Z,25.59
2018-08-03T00:50:42.985Z,25.56
2018-08-03T00:50:53.005Z,25.53
2018-08-03T00:51:03.017Z,25.57
2018-08-03T00:51:13.016Z,25.65
2018-08-03T00:51:23.036Z,25.59
2018-08-03T00:51:33.057Z,25.62
2018-08-03T00:51:43.059Z,25.6
2018-08-03T00:51:53.083Z,25.55
2018-08-03T00:52:03.097Z,25.59
2018-08-03T00:52:13.110Z,25.62
2018-08-03T00:52:23.125Z,25.56
2018-08-03T00:52:33.208Z,25.56
2018-08-03T00:52:43.145Z,25.67
2018-08-03T00:52:53.164Z,25.53
2018-08-03T00:53:03.195Z,25.56
2018-08-03T00:53:13.195Z,25.57
2018-08-03T00:53:23.196Z,25.56
2018-08-03T00:53:33.246Z,25.55
2018-08-03T00:53:43.238Z,25.6
2018-08-03T00:53:53.238Z,25.6
2018-08-03T00:54:03.258Z,25.62
2018-08-03T00:54:13.295Z,25.57
2018-08-03T00:54:23.298Z,25.59
2018-08-03T00:54:33.297Z,25.56
2018-08-03T00:54:43.320Z,25.53
2018-08-03T00:54:53.324Z,25.62
2018-08-03T00:55:03.345Z,25.65
2018-08-03T00:55:13.363Z,25.59
2018-08-03T00:55:23.366Z,25.62
2018-08-03T00:55:33.384Z,25.55
2018-08-03T00:55:43.401Z,25.65
2018-08-03T00:55:53.418Z,25.55
2018-08-03T00:56:03.425Z,25.56
2018-08-03T00:56:13.449Z,25.56
2018-08-03T00:56:23.457Z,25.55
2018-08-03T00:56:33.457Z,25.56
2018-08-03T00:56:43.496Z,25.64
2018-08-03T00:56:53.497Z,25.59
2018-08-03T00:57:03.497Z,25.56
2018-08-03T00:57:13.518Z,25.59
2018-08-03T00:57:23.545Z,25.53
2018-08-03T00:57:33.596Z,25.56
2018-08-03T00:57:43.558Z,25.55
2018-08-03T00:57:53.577Z,25.56
2018-08-03T00:58:03.587Z,25.52
2018-08-03T00:58:13.597Z,25.55
2018-08-03T00:58:23.617Z,25.6
2018-08-03T00:58:33.637Z,25.56
2018-08-03T00:58:43.629Z,25.57
2018-08-03T00:58:53.660Z,25.56
2018-08-03T00:59:03.710Z,25.6
2018-08-03T00:59:13.691Z,25.62
2018-08-03T00:59:23.700Z,25.6
2018-08-03T00:59:33.730Z,25.59
2018-08-03T00:59:43.745Z,25.6
2018-08-03T00:59:53.741Z,25.65
2018-08-03T01:00:03.761Z,25.57
2018-08-03T01:00:13.758Z,25.6
2018-08-03T01:00:23.787Z,25.65
2018-08-03T01:00:33.801Z,25.53
2018-08-03T01:00:43.827Z,25.57
2018-08-03T01:00:53.821Z,25.65
2018-08-03T01:01:03.840Z,25.59
2018-08-03T01:01:13.858Z,25.56
2018-08-03T01:01:23.865Z,25.65
2018-08-03T01:01:33.878Z,25.64
2018-08-03T01:01:43.910Z,25.56
2018-08-03T01:01:53.908Z,25.56
2018-08-03T01:02:03.926Z,25.68
2018-08-03T01:02:13.939Z,25.57
2018-08-03T01:02:23.938Z,25.6
2018-08-03T01:02:34.009Z,25.64
2018-08-03T01:02:43.980Z,25.62
2018-08-03T01:02:54.004Z,25.6
2018-08-03T01:03:03.999Z,25.64
2018-08-03T01:03:14.018Z,25.6
2018-08-03T01:03:24.037Z,25.6
2018-08-03T01:03:34.053Z,25.62
2018-08-03T01:03:44.068Z,25.64
2018-08-03T01:03:54.085Z,25.6
2018-08-03T01:04:04.086Z,25.67
2018-08-03T01:04:14.107Z,25.68
2018-08-03T01:04:24.129Z,25.65
2018-08-03T01:04:34.119Z,25.62
2018-08-03T01:04:44.139Z,25.55
2018-08-03T01:04:54.158Z,25.56
2018-08-03T01:05:04.197Z,25.6
2018-08-03T01:05:14.189Z,25.59
2018-08-03T01:05:24.208Z,25.56
2018-08-03T01:05:34.218Z,25.52
2018-08-03T01:05:44.228Z,25.55
2018-08-03T01:05:54.239Z,25.64
2018-08-03T01:06:04.259Z,25.55
2018-08-03T01:06:14.259Z,25.6
2018-08-03T01:06:24.284Z,25.62
2018-08-03T01:06:34.308Z,25.59
2018-08-03T01:06:44.313Z,25.64
2018-08-03T01:06:54.336Z,25.65
2018-08-03T01:07:04.358Z,25.56
2018-08-03T01:07:14.361Z,25.57
2018-08-03T01:07:24.358Z,25.57
2018-08-03T01:07:34.388Z,25.64
2018-08-03T01:07:44.402Z,25.6
2018-08-03T01:07:54.399Z,25.56
2018-08-03T01:08:04.443Z,25.53
2018-08-03T01:08:14.441Z,25.64
2018-08-03T01:08:24.438Z,25.59
2018-08-03T01:08:34.468Z,25.65
2018-08-03T01:08:44.479Z,25.59
2018-08-03T01:08:54.521Z,25.59
2018-08-03T01:09:04.510Z,25.62
2018-08-03T01:09:14.526Z,25.64
2018-08-03T01:09:24.536Z,25.59
2018-08-03T01:09:34.539Z,25.64
2018-08-03T01:09:44.578Z,25.59
2018-08-03T01:09:54.600Z,25.6
2018-08-03T01:10:04.579Z,25.64
2018-08-03T01:10:14.609Z,25.55
2018-08-03T01:10:24.620Z,25.65
2018-08-03T01:10:34.621Z,25.57
2018-08-03T01:10:44.647Z,25.65
2018-08-03T01:10:54.667Z,25.6
2018-08-03T01:11:04.676Z,25.59
2018-08-03T01:11:14.682Z,25.56
2018-08-03T01:11:24.698Z,25.55
2018-08-03T01:11:34.706Z,25.59
2018-08-03T01:11:44.730Z,25.59
2018-08-03T01:11:54.730Z,25.59
2018-08-03T01:12:04.768Z,25.59
2018-08-03T01:12:14.760Z,25.6
2018-08-03T01:12:24.779Z,25.62
2018-08-03T01:12:34.851Z,25.6
2018-08-03T01:12:44.796Z,25.6
2018-08-03T01:12:54.824Z,25.64
2018-08-03T01:13:04.843Z,25.56
2018-08-03T01:13:14.832Z,25.57
2018-08-03T01:13:24.870Z,25.57
2018-08-03T01:13:34.880Z,25.59
2018-08-03T01:13:44.888Z,25.59
2018-08-03T01:13:54.903Z,25.59
2018-08-03T01:14:04.920Z,25.59
2018-08-03T01:14:14.942Z,25.65
2018-08-03T01:14:24.941Z,25.56
2018-08-03T01:14:34.967Z,25.59
2018-08-03T01:14:44.983Z,25.52
2018-08-03T01:14:54.985Z,25.55
2018-08-03T01:15:05.010Z,25.6
2018-08-03T01:15:15.038Z,25.59
2018-08-03T01:15:25.020Z,25.62
2018-08-03T01:15:35.053Z,25.62
2018-08-03T01:15:45.060Z,25.59
2018-08-03T01:15:55.062Z,25.57
2018-08-03T01:16:05.083Z,25.59
2018-08-03T01:16:15.106Z,25.62
2018-08-03T01:16:25.123Z,25.55
2018-08-03T01:16:35.120Z,25.68
2018-08-03T01:16:45.141Z,25.57
2018-08-03T01:16:55.169Z,25.62
2018-08-03T01:17:05.162Z,25.52
2018-08-03T01:17:15.187Z,25.59
2018-08-03T01:17:25.213Z,25.56
2018-08-03T01:17:35.258Z,25.6
2018-08-03T01:17:45.244Z,25.59
2018-08-03T01:17:55.241Z,25.65
2018-08-03T01:18:05.241Z,25.62
2018-08-03T01:18:15.261Z,25.56
2018-08-03T01:18:25.295Z,25.68
2018-08-03T01:18:35.300Z,25.65
2018-08-03T01:18:45.302Z,25.65
2018-08-03T01:18:55.318Z,25.64
2018-08-03T01:19:05.341Z,25.52
2018-08-03T01:19:15.341Z,25.57
2018-08-03T01:19:25.368Z,25.57
2018-08-03T01:19:35.379Z,25.67
2018-08-03T01:19:45.402Z,25.62
2018-08-03T01:19:55.402Z,25.57
2018-08-03T01:20:05.431Z,25.59
2018-08-03T01:20:15.429Z,25.56
2018-08-03T01:20:25.451Z,25.56
2018-08-03T01:20:35.460Z,25.67
2018-08-03T01:20:45.469Z,25.57
2018-08-03T01:20:55.492Z,25.5
2018-08-03T01:21:05.501Z,25.5
2018-08-03T01:21:15.529Z,25.47
2018-08-03T01:21:25.521Z,25.56
2018-08-03T01:21:35.551Z,25.52
2018-08-03T01:21:45.561Z,25.68
2018-08-03T01:21:55.560Z,25.62
2018-08-03T01:22:05.589Z,25.55
2018-08-03T01:22:15.611Z,25.59
2018-08-03T01:22:25.602Z,25.7
2018-08-03T01:22:35.671Z,25.53
2018-08-03T01:22:45.643Z,25.52
2018-08-03T01:22:55.645Z,25.57
2018-08-03T01:23:05.669Z,25.65
2018-08-03T01:23:15.684Z,25.56
2018-08-03T01:23:25.708Z,25.56
2018-08-03T01:23:35.703Z,25.6
2018-08-03T01:23:45.730Z,25.57
2018-08-03T01:23:55.743Z,25.59
2018-08-03T01:24:05.734Z,25.57
2018-08-03T01:24:15.773Z,25.67
2018-08-03T01:24:25.780Z,25.57
2018-08-03T01:24:35.778Z,25.59
2018-08-03T01:24:45.791Z,25.59
2018-08-03T01:24:55.840Z,25.59
2018-08-03T01:25:05.864Z,25.52
2018-08-03T01:25:15.841Z,25.56
2018-08-03T01:25:25.881Z,25.62
2018-08-03T01:25:35.887Z,25.53
2018-08-03T01:25:45.880Z,25.56
2018-08-03T01:25:55.901Z,25.57
2018-08-03T01:26:05.912Z,25.53
2018-08-03T01:26:15.939Z,25.55
2018-08-03T01:26:25.948Z,25.56
2018-08-03T01:26:35.971Z,25.62
2018-08-03T01:26:45.963Z,25.59
2018-08-03T01:26:56.009Z,25.7
2018-08-03T01:27:06.005Z,25.57
2018-08-03T01:27:15.991Z,25.55
2018-08-03T01:27:26.027Z,25.56
2018-08-03T01:27:36.060Z,25.56
2018-08-03T01:27:46.042Z,25.59
2018-08-03T01:27:56.052Z,25.65
2018-08-03T01:28:06.081Z,25.56
2018-08-03T01:28:16.107Z,25.67
2018-08-03T01:28:26.101Z,25.56
2018-08-03T01:28:36.144Z,25.56
2018-08-03T01:28:46.140Z,25.62
2018-08-03T01:28:56.142Z,25.57
2018-08-03T01:29:06.163Z,25.57
2018-08-03T01:29:16.186Z,25.59
2018-08-03T01:29:26.171Z,25.56
2018-08-03T01:29:36.196Z,25.59
2018-08-03T01:29:46.220Z,25.65
2018-08-03T01:29:56.222Z,25.55
2018-08-03T01:30:06.242Z,25.57
2018-08-03T01:30:16.262Z,25.6
2018-08-03T01:30:26.262Z,25.67
2018-08-03T01:30:36.281Z,25.59
2018-08-03T01:30:46.309Z,25.59
2018-08-03T01:30:56.322Z,25.59
2018-08-03T01:31:06.329Z,25.56
2018-08-03T01:31:16.342Z,25.67
2018-08-03T01:31:26.362Z,25.62
2018-08-03T01:31:36.369Z,25.52
2018-08-03T01:31:46.379Z,25.59
2018-08-03T01:31:56.402Z,25.6
2018-08-03T01:32:06.414Z,25.55
2018-08-03T01:32:16.424Z,25.57
2018-08-03T01:32:26.447Z,25.65
2018-08-03T01:32:36.490Z,25.6
2018-08-03T01:32:46.461Z,25.53
2018-08-03T01:32:56.622Z,25.59
2018-08-03T01:33:06.503Z,25.57
2018-08-03T01:33:16.501Z,25.59
2018-08-03T01:33:26.534Z,25.62
2018-08-03T01:33:36.544Z,25.55
2018-08-03T01:33:46.542Z,25.6
2018-08-03T01:33:56.563Z,25.59
2018-08-03T01:34:06.575Z,25.62
2018-08-03T01:34:16.581Z,25.67
2018-08-03T01:34:26.595Z,25.6
2018-08-03T01:34:36.623Z,25.65
2018-08-03T01:34:46.630Z,25.59
2018-08-03T01:34:56.641Z,25.59
2018-08-03T01:35:06.652Z,25.6
2018-08-03T01:35:16.671Z,25.57
2018-08-03T01:35:26.693Z,25.5
2018-08-03T01:35:36.701Z,25.59
2018-08-03T01:35:46.723Z,25.62
2018-08-03T01:35:56.723Z,25.5
2018-08-03T01:36:06.744Z,25.6
2018-08-03T01:36:16.757Z,25.55
2018-08-03T01:36:26.765Z,25.64
2018-08-03T01:36:36.772Z,25.67
2018-08-03T01:36:46.805Z,25.6
2018-08-03T01:36:56.803Z,25.62
2018-08-03T01:37:06.823Z,25.65
2018-08-03T01:37:16.833Z,25.5
2018-08-03T01:37:26.843Z,25.56
2018-08-03T01:37:37.054Z,25.59
2018-08-03T01:37:46.914Z,25.62
2018-08-03T01:37:56.935Z,25.57
2018-08-03T01:38:06.911Z,25.62
2018-08-03T01:38:16.929Z,25.52
2018-08-03T01:38:26.923Z,25.55
2018-08-03T01:38:36.935Z,25.56
2018-08-03T01:38:46.976Z,25.57
2018-08-03T01:38:56.981Z,25.53
2018-08-03T01:39:06.990Z,25.5
2018-08-03T01:39:17.020Z,25.49
2018-08-03T01:39:27.023Z,25.62
2018-08-03T01:39:37.034Z,25.64
2018-08-03T01:39:47.033Z,25.55
2018-08-03T01:39:57.074Z,25.5
2018-08-03T01:40:07.091Z,25.49
2018-08-03T01:40:17.090Z,25.55
2018-08-03T01:40:27.114Z,25.55
2018-08-03T01:40:37.115Z,25.59
2018-08-03T01:40:47.123Z,25.59
2018-08-03T01:40:57.133Z,25.53
2018-08-03T01:41:07.162Z,25.56
2018-08-03T01:41:17.164Z,25.6
2018-08-03T01:41:27.184Z,25.57
2018-08-03T01:41:37.202Z,25.59
2018-08-03T01:41:47.194Z,25.65
2018-08-03T01:41:57.223Z,25.56
2018-08-03T01:42:07.248Z,25.56
2018-08-03T01:42:17.263Z,25.64
2018-08-03T01:42:27.283Z,25.53
2018-08-03T01:42:37.275Z,25.59
2018-08-03T01:42:47.303Z,25.59
2018-08-03T01:42:57.304Z,25.68
2018-08-03T01:43:07.314Z,25.56
2018-08-03T01:43:17.333Z,25.56
2018-08-03T01:43:27.334Z,25.57
2018-08-03T01:43:37.380Z,25.55
2018-08-03T01:43:47.384Z,25.67
2018-08-03T01:43:57.392Z,25.56
2018-08-03T01:44:07.393Z,25.59
2018-08-03T01:44:17.429Z,25.59
2018-08-03T01:44:27.414Z,25.59
2018-08-03T01:44:37.434Z,25.55
2018-08-03T01:44:47.454Z,25.64
2018-08-03T01:44:57.484Z,25.57
2018-08-03T01:45:07.484Z,25.67
2018-08-03T01:45:17.494Z,25.65
2018-08-03T01:45:27.514Z,25.5
2018-08-03T01:45:37.514Z,25.67
2018-08-03T01:45:47.546Z,25.57
2018-08-03T01:45:57.554Z,25.55
2018-08-03T01:46:07.553Z,25.52
2018-08-03T01:46:17.583Z,25.56
2018-08-03T01:46:27.595Z,25.55
2018-08-03T01:46:37.594Z,25.56
2018-08-03T01:46:47.618Z,25.53
2018-08-03T01:46:57.636Z,25.65
2018-08-03T01:47:07.634Z,25.53
2018-08-03T01:47:17.660Z,25.6
2018-08-03T01:47:27.685Z,25.56
2018-08-03T01:47:37.754Z,25.5
2018-08-03T01:47:47.696Z,25.53
2018-08-03T01:47:57.724Z,25.55
2018-08-03T01:48:07.750Z,25.49
2018-08-03T01:48:17.751Z,25.55
2018-08-03T01:48:27.773Z,25.53
2018-08-03T01:48:37.783Z,25.49
2018-08-03T01:48:47.774Z,25.46
2018-08-03T01:48:57.796Z,25.49
2018-08-03T01:49:07.822Z,25.55
2018-08-03T01:49:17.916Z,25.56
2018-08-03T01:49:27.835Z,25.59
2018-08-03T01:49:37.853Z,25.52
2018-08-03T01:49:47.884Z,25.47
2018-08-03T01:49:57.875Z,25.52
2018-08-03T01:50:07.912Z,25.57
2018-08-03T01:50:17.952Z,25.64
2018-08-03T01:50:27.915Z,25.56
2018-08-03T01:50:37.944Z,25.65
2018-08-03T01:50:47.965Z,25.57
2018-08-03T01:50:57.964Z,25.55
2018-08-03T01:51:07.975Z,25.5
2018-08-03T01:51:17.996Z,25.53
2018-08-03T01:51:28.006Z,25.6
2018-08-03T01:51:38.031Z,25.47
2018-08-03T01:51:48.045Z,25.55
2018-08-03T01:51:58.071Z,25.5
2018-08-03T01:52:08.055Z,25.5
2018-08-03T01:52:18.081Z,25.53
2018-08-03T01:52:28.105Z,25.56
2018-08-03T01:52:38.144Z,25.62
2018-08-03T01:52:48.126Z,25.57
2018-08-03T01:52:58.165Z,25.52
2018-08-03T01:53:08.153Z,25.57
2018-08-03T01:53:18.156Z,25.47
2018-08-03T01:53:28.195Z,25.64
2018-08-03T01:53:38.175Z,25.56
2018-08-03T01:53:48.194Z,25.55
2018-08-03T01:53:58.223Z,25.56
2018-08-03T01:54:08.215Z,25.59
2018-08-03T01:54:18.241Z,25.57
2018-08-03T01:54:28.272Z,25.47
2018-08-03T01:54:38.275Z,25.47
2018-08-03T01:54:48.283Z,25.62
2018-08-03T01:54:58.297Z,25.46
2018-08-03T01:55:08.325Z,25.64
2018-08-03T01:55:18.316Z,25.46
2018-08-03T01:55:28.382Z,25.57
2018-08-03T01:55:38.364Z,25.49
2018-08-03T01:55:48.361Z,25.5
2018-08-03T01:55:58.378Z,25.53
2018-08-03T01:56:08.415Z,25.42
2018-08-03T01:56:18.395Z,25.53
2018-08-03T01:56:28.414Z,25.57
2018-08-03T01:56:38.440Z,25.55
2018-08-03T01:56:48.465Z,25.53
2018-08-03T01:56:58.470Z,25.5
2018-08-03T01:57:08.478Z,25.5
2018-08-03T01:57:18.495Z,25.52
2018-08-03T01:57:28.495Z,25.62
2018-08-03T01:57:38.583Z,25.62
2018-08-03T01:57:48.543Z,25.55
2018-08-03T01:57:58.535Z,25.56
2018-08-03T01:58:08.560Z,25.52
2018-08-03T01:58:18.591Z,25.55
2018-08-03T01:58:28.585Z,25.59
2018-08-03T01:58:38.597Z,25.59
2018-08-03T01:58:48.616Z,25.46
2018-08-03T01:58:58.673Z,25.59
2018-08-03T01:59:08.671Z,25.52
2018-08-03T01:59:18.667Z,25.45
2018-08-03T01:59:28.685Z,25.56
2018-08-03T01:59:38.684Z,25.56
2018-08-03T01:59:48.695Z,25.55
2018-08-03T01:59:58.728Z,25.53
2018-08-03T02:00:08.726Z,25.6
2018-08-03T02:00:18.736Z,25.57
2018-08-03T02:00:28.766Z,25.52
2018-08-03T02:00:38.763Z,25.55
2018-08-03T02:00:48.792Z,25.64
2018-08-03T02:00:58.813Z,25.53
2018-08-03T02:01:08.824Z,25.55
2018-08-03T02:01:18.836Z,25.5
2018-08-03T02:01:28.836Z,25.59
2018-08-03T02:01:38.868Z,25.5
2018-08-03T02:01:48.856Z,25.49
2018-08-03T02:01:58.884Z,25.57
2018-08-03T02:02:08.888Z,25.55
2018-08-03T02:02:18.916Z,25.56
2018-08-03T02:02:28.916Z,25.52
2018-08-03T02:02:38.986Z,25.53
2018-08-03T02:02:48.965Z,25.52
2018-08-03T02:02:58.978Z,25.55
2018-08-03T02:03:09.012Z,25.47
2018-08-03T02:03:19.079Z,25.49
2018-08-03T02:03:29.029Z,25.59
2018-08-03T02:03:39.016Z,25.49
2018-08-03T02:03:49.049Z,25.49
2018-08-03T02:03:59.056Z,25.59
2018-08-03T02:04:09.064Z,25.55
2018-08-03T02:04:19.084Z,25.52
2018-08-03T02:04:29.107Z,25.45
2018-08-03T02:04:39.099Z,25.52
2018-08-03T02:04:49.119Z,25.57
2018-08-03T02:04:59.137Z,25.56
2018-08-03T02:05:09.166Z,25.49
2018-08-03T02:05:19.138Z,25.62
2018-08-03T02:05:29.178Z,25.49
2018-08-03T02:05:39.205Z,25.56
2018-08-03T02:05:49.207Z,25.52
2018-08-03T02:05:59.237Z,25.52
2018-08-03T02:06:09.255Z,25.55
2018-08-03T02:06:19.254Z,25.53
2018-08-03T02:06:29.261Z,25.5
2018-08-03T02:06:39.287Z,25.52
2018-08-03T02:06:49.285Z,25.52
2018-08-03T02:06:59.296Z,25.57
2018-08-03T02:07:09.329Z,25.57
2018-08-03T02:07:19.327Z,25.56
2018-08-03T02:07:29.347Z,25.46
2018-08-03T02:07:39.416Z,25.56
2018-08-03T02:07:49.377Z,25.62
2018-08-03T02:07:59.377Z,25.46
2018-08-03T02:08:09.396Z,25.59
2018-08-03T02:08:19.417Z,25.6
2018-08-03T02:08:29.417Z,25.56
2018-08-03T02:08:39.447Z,25.52
2018-08-03T02:08:49.475Z,25.57
2018-08-03T02:08:59.465Z,25.52
2018-08-03T02:09:09.487Z,25.57
2018-08-03T02:09:19.500Z,25.45
2018-08-03T02:09:29.503Z,25.59